Time;durP1;ratioP1;P1;durP2;ratioP2;P2;SDS_P1;SDS_P2;PMS_P1;PMS_P2;Temp;Humidity;BMP_temperature;BMP_pressure;BME280_temperature;BME280_humidity;BME280_pressure;Samples;Min_cycle;Max_cycle;Signal;HPM_P1;HPM_P2
2022/10/26 00:01:19;;;;;;;5.30;3.73;;;;;;;;;;5076410;28;20932;-69
2022/10/26 00:03:56;;;;;;;5.90;4.30;;;;;;;;;;5075468;28;20453;-69
2022/10/26 00:06:24;;;;;;;5.00;3.63;;;;;;;;;;5075974;28;20452;-69
2022/10/26 00:08:51;;;;;;;5.53;4.00;;;;;;;;;;5075625;28;20452;-69
2022/10/26 00:11:18;;;;;;;4.67;3.27;;;;;;;;;;5076738;28;20492;-69
2022/10/26 00:13:46;;;;;;;8.53;4.03;;;;;;;;;;5076753;28;20846;-68
2022/10/26 00:16:15;;;;;;;4.93;3.53;;;;;;;;;;5076106;28;20444;-69
2022/10/26 00:18:43;;;;;;;8.23;4.37;;;;;;;;;;5075903;28;20441;-69
2022/10/26 00:21:11;;;;;;;9.00;3.37;;;;;;;;;;5071199;28;20481;-69
2022/10/26 00:23:38;;;;;;;5.47;3.63;;;;;;;;;;5056228;28;20449;-69
2022/10/26 00:26:05;;;;;;;7.73;4.40;;;;;;;;;;5055987;28;20457;-69
2022/10/26 00:28:32;;;;;;;6.40;4.23;;;;;;;;;;5056391;28;20492;-69
2022/10/26 00:31:01;;;;;;;10.20;4.57;;;;;;;;;;5057430;28;20717;-68
2022/10/26 00:33:29;;;;;;;9.37;4.83;;;;;;;;;;5073704;28;20452;-68
2022/10/26 00:35:56;;;;;;;5.07;3.30;;;;;;;;;;5076118;28;20471;-68
2022/10/26 00:38:25;;;;;;;5.40;3.80;;;;;;;;;;5076083;28;20480;-70
2022/10/26 00:40:56;;;;;;;6.33;4.97;;;;;;;;;;5075559;28;20943;-70
2022/10/26 00:43:36;;;;;;;5.00;3.90;;;;;;;;;;5065333;28;20472;-69
2022/10/26 00:46:05;;;;;;;6.10;4.10;;;;;;;;;;5056480;28;20558;-69
2022/10/26 00:48:35;;;;;;;8.70;4.13;;;;;;;;;;5055681;28;20477;-69
2022/10/26 00:51:05;;;;;;;10.73;4.37;;;;;;;;;;5056577;28;20473;-70
2022/10/26 00:53:32;;;;;;;7.80;4.03;;;;;;;;;;5055944;28;20449;-70
2022/10/26 00:56:00;;;;;;;5.37;3.50;;;;;;;;;;5056000;28;20457;-70
2022/10/26 00:58:27;;;;;;;8.07;3.70;;;;;;;;;;5055886;28;20488;-69
2022/10/26 01:00:55;;;;;;;8.97;4.07;;;;;;;;;;5055300;28;20485;-70
2022/10/26 01:03:23;;;;;;;8.33;4.17;;;;;;;;;;5069116;28;20441;-69
2022/10/26 01:06:04;;;;;;;8.33;4.63;;;;;;;;;;5075476;28;20520;-69
2022/10/26 01:08:36;;;;;;;9.87;4.70;;;;;;;;;;5075471;28;20448;-69
2022/10/26 01:11:03;;;;;;;9.63;3.80;;;;;;;;;;5075391;28;20873;-69
2022/10/26 01:13:31;;;;;;;7.23;4.20;;;;;;;;;;5075697;28;20476;-69
2022/10/26 01:16:03;;;;;;;8.87;4.87;;;;;;;;;;5074414;28;20520;-69
2022/10/26 01:18:37;;;;;;;7.57;4.33;;;;;;;;;;5075045;28;20457;-71
2022/10/26 01:21:19;;;;;;;7.67;5.53;;;;;;;;;;5074043;28;20484;-70
2022/10/26 01:24:02;;;;;;;9.47;4.37;;;;;;;;;;5057744;28;20457;-69
2022/10/26 01:26:47;;;;;;;14.03;4.90;;;;;;;;;;5055499;28;20973;-70
2022/10/26 01:29:29;;;;;;;11.33;4.80;;;;;;;;;;5066196;28;20452;-70
2022/10/26 01:32:01;;;;;;;9.03;5.53;;;;;;;;;;5072573;28;20533;-70
2022/10/26 01:34:31;;;;;;;9.77;5.63;;;;;;;;;;5074785;28;20457;-69
2022/10/26 01:37:00;;;;;;;8.20;5.07;;;;;;;;;;5071340;28;20550;-69
2022/10/26 01:39:30;;;;;;;8.23;4.97;;;;;;;;;;5075495;28;20472;-69
2022/10/26 01:41:59;;;;;;;8.63;4.53;;;;;;;;;;5074784;28;20534;-69
2022/10/26 01:44:29;;;;;;;8.80;5.53;;;;;;;;;;5074494;28;20478;-69
2022/10/26 01:46:58;;;;;;;6.73;4.60;;;;;;;;;;5074526;28;20449;-70
2022/10/26 01:49:27;;;;;;;8.13;5.13;;;;;;;;;;5074648;28;20487;-69
2022/10/26 01:51:54;;;;;;;8.10;5.17;;;;;;;;;;5074934;28;20452;-69
2022/10/26 01:54:21;;;;;;;9.40;5.40;;;;;;;;;;5074406;28;20457;-69
2022/10/26 01:56:52;;;;;;;14.53;6.50;;;;;;;;;;5074439;28;20448;-69
2022/10/26 01:59:30;;;;;;;9.33;5.90;;;;;;;;;;5074471;28;20857;-69
2022/10/26 02:02:14;;;;;;;16.60;6.60;;;;;;;;;;5074383;28;20734;-70
2022/10/26 02:04:49;;;;;;;8.47;6.00;;;;;;;;;;5073471;28;20811;-69
2022/10/26 02:07:22;;;;;;;11.03;6.00;;;;;;;;;;5073822;28;20533;-69
2022/10/26 02:09:54;;;;;;;12.50;6.40;;;;;;;;;;5074673;28;20480;-70
2022/10/26 02:12:26;;;;;;;10.80;7.03;;;;;;;;;;5074829;28;20739;-69
2022/10/26 02:14:58;;;;;;;12.10;6.80;;;;;;;;;;5074394;28;20453;-70
2022/10/26 02:17:28;;;;;;;8.90;6.40;;;;;;;;;;5073829;28;20614;-70
2022/10/26 02:19:58;;;;;;;11.40;6.00;;;;;;;;;;5074362;28;20456;-70
2022/10/26 02:22:28;;;;;;;17.90;9.37;;;;;;;;;;5054903;28;20578;-70
2022/10/26 02:24:56;;;;;;;11.97;7.30;;;;;;;;;;5054193;28;20517;-70
2022/10/26 02:27:24;;;;;;;11.63;7.30;;;;;;;;;;5057112;28;20454;-69
2022/10/26 02:29:58;;;;;;;12.10;7.67;;;;;;;;;;5068376;28;20464;-71
2022/10/26 02:32:27;;;;;;;14.30;6.80;;;;;;;;;;5077685;28;20529;-69
2022/10/26 02:34:57;;;;;;;10.70;7.00;;;;;;;;;;5077514;28;20480;-70
2022/10/26 02:37:26;;;;;;;11.17;7.17;;;;;;;;;;5077447;28;20460;-70
2022/10/26 02:39:58;;;;;;;13.90;8.07;;;;;;;;;;5078035;28;20585;-70
2022/10/26 02:42:25;;;;;;;14.53;7.13;;;;;;;;;;5077786;28;20773;-70
2022/10/26 02:44:54;;;;;;;18.20;7.60;;;;;;;;;;5078541;28;20592;-70
2022/10/26 02:47:21;;;;;;;12.00;7.20;;;;;;;;;;5077607;28;20447;-69
2022/10/26 02:49:48;;;;;;;14.93;7.40;;;;;;;;;;5077460;28;20857;-69
2022/10/26 02:52:19;;;;;;;10.17;6.40;;;;;;;;;;5077377;28;20513;-69
2022/10/26 02:54:51;;;;;;;13.83;7.80;;;;;;;;;;5077628;28;20488;-70
2022/10/26 02:57:20;;;;;;;10.13;6.53;;;;;;;;;;5077551;28;20455;-69
2022/10/26 02:59:48;;;;;;;12.83;5.57;;;;;;;;;;5077697;28;20514;-69
2022/10/26 03:02:23;;;;;;;16.83;7.53;;;;;;;;;;5077622;28;20523;-70
2022/10/26 03:04:51;;;;;;;12.83;7.43;;;;;;;;;;5077515;28;20456;-69
2022/10/26 03:07:21;;;;;;;13.27;8.00;;;;;;;;;;5077081;28;20464;-69
2022/10/26 03:09:49;;;;;;;12.13;6.97;;;;;;;;;;5077746;28;20504;-69
2022/10/26 03:12:16;;;;;;;11.70;8.30;;;;;;;;;;5077392;28;20449;-69
2022/10/26 03:14:44;;;;;;;16.90;7.43;;;;;;;;;;5077670;28;20457;-69
2022/10/26 03:17:11;;;;;;;10.87;8.20;;;;;;;;;;5076371;28;20440;-69
2022/10/26 03:19:40;;;;;;;13.87;8.47;;;;;;;;;;5068124;28;20462;-69
2022/10/26 03:22:07;;;;;;;12.47;7.80;;;;;;;;;;5057935;28;20500;-69
2022/10/26 03:24:36;;;;;;;11.73;6.87;;;;;;;;;;5072161;28;20521;-69
2022/10/26 03:27:04;;;;;;;15.00;9.10;;;;;;;;;;5076190;28;20491;-69
2022/10/26 03:29:31;;;;;;;11.93;7.73;;;;;;;;;;5076248;28;20448;-68
2022/10/26 03:31:58;;;;;;;11.03;7.57;;;;;;;;;;5075854;28;20498;-69
2022/10/26 03:34:25;;;;;;;15.33;7.63;;;;;;;;;;5076677;28;20456;-68
2022/10/26 03:36:52;;;;;;;11.83;7.93;;;;;;;;;;5076490;28;20457;-69
2022/10/26 03:39:19;;;;;;;11.37;8.30;;;;;;;;;;5075627;28;20730;-70
2022/10/26 03:41:46;;;;;;;14.90;8.17;;;;;;;;;;5076958;28;20912;-70
2022/10/26 03:44:14;;;;;;;14.37;8.07;;;;;;;;;;5077312;28;20475;-70
2022/10/26 03:46:41;;;;;;;12.13;6.60;;;;;;;;;;5076664;28;20502;-70
2022/10/26 03:49:08;;;;;;;11.37;7.90;;;;;;;;;;5065995;28;20496;-70
2022/10/26 03:51:35;;;;;;;13.40;7.23;;;;;;;;;;5057576;28;20461;-70
2022/10/26 03:54:02;;;;;;;11.20;8.00;;;;;;;;;;5057398;28;20485;-69
2022/10/26 03:56:29;;;;;;;13.00;7.67;;;;;;;;;;5058113;28;20502;-70
2022/10/26 03:58:56;;;;;;;15.47;8.03;;;;;;;;;;5057688;28;20489;-70
2022/10/26 04:01:24;;;;;;;17.13;8.50;;;;;;;;;;5058395;28;20904;-70
2022/10/26 04:03:51;;;;;;;10.60;7.40;;;;;;;;;;5056791;28;20907;-70
2022/10/26 04:06:21;;;;;;;12.60;8.10;;;;;;;;;;5061182;28;20551;-70
2022/10/26 04:08:49;;;;;;;12.80;8.90;;;;;;;;;;5076294;28;21030;-70
2022/10/26 04:11:16;;;;;;;20.80;9.63;;;;;;;;;;5076431;28;20467;-70
2022/10/26 04:13:43;;;;;;;19.03;8.07;;;;;;;;;;5076809;28;20763;-70
2022/10/26 04:16:10;;;;;;;15.73;8.00;;;;;;;;;;5075284;28;20444;-70
2022/10/26 04:18:38;;;;;;;13.40;8.20;;;;;;;;;;5073622;28;20563;-70
2022/10/26 04:21:08;;;;;;;13.23;8.70;;;;;;;;;;5075866;28;20480;-70
2022/10/26 04:23:35;;;;;;;13.37;8.77;;;;;;;;;;5076679;28;20453;-70
2022/10/26 04:26:02;;;;;;;13.40;8.07;;;;;;;;;;5076519;28;20457;-70
2022/10/26 04:28:41;;;;;;;14.13;7.90;;;;;;;;;;5075798;28;20482;-70
2022/10/26 04:31:08;;;;;;;15.77;9.63;;;;;;;;;;5075326;28;20535;-70
2022/10/26 04:33:35;;;;;;;14.97;8.33;;;;;;;;;;5075808;28;20457;-71
2022/10/26 04:36:02;;;;;;;15.20;9.37;;;;;;;;;;5075782;28;20843;-70
2022/10/26 04:38:42;;;;;;;15.83;10.37;;;;;;;;;;5076565;28;20719;-70
2022/10/26 04:41:09;;;;;;;15.50;8.80;;;;;;;;;;5076589;28;20558;-70
2022/10/26 04:43:36;;;;;;;14.70;7.20;;;;;;;;;;5075603;28;20732;-70
2022/10/26 04:46:03;;;;;;;18.27;9.07;;;;;;;;;;5075487;28;20473;-70
2022/10/26 04:48:30;;;;;;;14.03;8.57;;;;;;;;;;5075781;28;20459;-70
2022/10/26 04:50:59;;;;;;;16.23;8.77;;;;;;;;;;5074267;28;20483;-70
2022/10/26 04:53:27;;;;;;;12.60;6.73;;;;;;;;;;5075857;28;20466;-69
2022/10/26 04:55:56;;;;;;;12.97;7.80;;;;;;;;;;5073524;28;20473;-70
2022/10/26 04:58:24;;;;;;;13.97;8.40;;;;;;;;;;5074229;28;20541;-70
2022/10/26 05:00:54;;;;;;;16.17;8.57;;;;;;;;;;5072227;28;20479;-70
2022/10/26 05:03:25;;;;;;;13.50;8.40;;;;;;;;;;5068201;28;20454;-70
2022/10/26 05:05:52;;;;;;;19.10;7.90;;;;;;;;;;5068496;28;20465;-69
2022/10/26 05:08:19;;;;;;;19.50;13.70;;;;;;;;;;5076762;28;20440;-69
2022/10/26 05:10:49;;;;;;;15.83;9.37;;;;;;;;;;5073749;28;20494;-69
2022/10/26 05:13:16;;;;;;;15.13;8.70;;;;;;;;;;5074382;28;20456;-69
2022/10/26 05:15:44;;;;;;;13.20;7.93;;;;;;;;;;5074745;28;20463;-69
2022/10/26 05:18:11;;;;;;;11.33;7.97;;;;;;;;;;5074066;28;20482;-70
2022/10/26 05:20:38;;;;;;;13.00;8.43;;;;;;;;;;5071318;28;20962;-70
2022/10/26 05:23:10;;;;;;;15.20;8.53;;;;;;;;;;5072836;28;20463;-71
2022/10/26 05:25:38;;;;;;;15.57;7.70;;;;;;;;;;5063029;28;20871;-71
2022/10/26 05:28:08;;;;;;;15.60;8.57;;;;;;;;;;5073664;28;20517;-70
2022/10/26 05:30:35;;;;;;;14.40;8.80;;;;;;;;;;5073518;28;20461;-71
2022/10/26 05:33:02;;;;;;;16.37;9.20;;;;;;;;;;5068102;28;20757;-70
2022/10/26 05:35:32;;;;;;;16.07;8.87;;;;;;;;;;5070454;28;20476;-71
2022/10/26 05:38:08;;;;;;;15.80;8.50;;;;;;;;;;5072485;28;20527;-70
2022/10/26 05:40:35;;;;;;;15.37;9.10;;;;;;;;;;5072710;28;20448;-70
2022/10/26 05:43:03;;;;;;;17.73;9.70;;;;;;;;;;5073401;28;20467;-69
2022/10/26 05:45:31;;;;;;;13.10;9.30;;;;;;;;;;5073061;28;20463;-69
2022/10/26 05:48:01;;;;;;;13.40;8.13;;;;;;;;;;5075844;28;20483;-69
2022/10/26 05:50:31;;;;;;;14.03;9.30;;;;;;;;;;5073564;28;20460;-70
2022/10/26 05:52:58;;;;;;;21.93;9.53;;;;;;;;;;5073012;28;20791;-69
2022/10/26 05:55:26;;;;;;;13.93;9.00;;;;;;;;;;5072375;28;20554;-69
2022/10/26 05:57:53;;;;;;;15.47;9.30;;;;;;;;;;5071606;28;20551;-69
2022/10/26 06:00:22;;;;;;;11.00;8.13;;;;;;;;;;5072826;28;20448;-69
2022/10/26 06:02:58;;;;;;;14.50;8.67;;;;;;;;;;5073282;28;20573;-69
2022/10/26 06:05:28;;;;;;;16.90;8.53;;;;;;;;;;5072510;28;20495;-69
2022/10/26 06:07:55;;;;;;;16.90;7.87;;;;;;;;;;5072735;28;20451;-69
2022/10/26 06:10:25;;;;;;;14.17;7.83;;;;;;;;;;5072968;28;20469;-69
2022/10/26 06:12:57;;;;;;;23.27;9.33;;;;;;;;;;5069730;28;20509;-69
2022/10/26 06:15:24;;;;;;;20.73;8.97;;;;;;;;;;5072441;28;20456;-71
2022/10/26 06:17:58;;;;;;;13.90;7.17;;;;;;;;;;5072308;28;20460;-72
2022/10/26 06:20:31;;;;;;;16.40;8.27;;;;;;;;;;5071583;28;20445;-71
2022/10/26 06:23:04;;;;;;;13.83;7.47;;;;;;;;;;5071800;28;20456;-71
2022/10/26 06:25:37;;;;;;;15.13;9.03;;;;;;;;;;5071855;28;20499;-72
2022/10/26 06:28:11;;;;;;;11.30;7.40;;;;;;;;;;5070310;28;20554;-71
2022/10/26 06:30:40;;;;;;;16.27;7.93;;;;;;;;;;5071095;28;20950;-72
2022/10/26 06:33:09;;;;;;;14.93;8.00;;;;;;;;;;5072035;28;20444;-71
2022/10/26 06:35:40;;;;;;;15.40;7.83;;;;;;;;;;5071638;28;20464;-71
2022/10/26 06:38:08;;;;;;;20.03;8.10;;;;;;;;;;5072411;28;20481;-72
2022/10/26 06:40:36;;;;;;;13.10;8.63;;;;;;;;;;5071282;28;20558;-72
2022/10/26 06:43:04;;;;;;;12.20;7.53;;;;;;;;;;5072668;28;20752;-71
2022/10/26 06:45:32;;;;;;;22.77;12.77;;;;;;;;;;5073250;28;20475;-71
2022/10/26 06:48:04;;;;;;;15.17;9.43;;;;;;;;;;5072164;28;20857;-72
2022/10/26 06:50:37;;;;;;;11.90;7.30;;;;;;;;;;5072121;28;20492;-71
2022/10/26 06:53:15;;;;;;;9.90;7.00;;;;;;;;;;5071622;28;20468;-70
2022/10/26 06:55:43;;;;;;;13.37;7.57;;;;;;;;;;5068953;28;20460;-69
2022/10/26 06:58:15;;;;;;;12.00;8.00;;;;;;;;;;5072063;28;20459;-70
2022/10/26 07:00:44;;;;;;;11.53;7.50;;;;;;;;;;5070602;28;20544;-70
2022/10/26 07:03:16;;;;;;;15.30;7.07;;;;;;;;;;5071185;28;20528;-70
2022/10/26 07:05:47;;;;;;;10.90;7.50;;;;;;;;;;5066345;28;20472;-70
2022/10/26 07:08:14;;;;;;;15.80;7.87;;;;;;;;;;5071556;28;20456;-70
2022/10/26 07:10:44;;;;;;;11.07;7.50;;;;;;;;;;5071633;28;20467;-69
2022/10/26 07:13:11;;;;;;;11.27;7.23;;;;;;;;;;5073720;28;20582;-69
2022/10/26 07:15:38;;;;;;;13.23;7.20;;;;;;;;;;5074806;28;21263;-70
2022/10/26 07:18:06;;;;;;;12.30;7.40;;;;;;;;;;5073510;28;20452;-70
2022/10/26 07:20:35;;;;;;;14.20;7.40;;;;;;;;;;5071229;28;20463;-70
2022/10/26 07:23:07;;;;;;;13.07;7.60;;;;;;;;;;5069976;28;20594;-71
2022/10/26 07:25:39;;;;;;;10.77;6.60;;;;;;;;;;5074468;28;20467;-69
2022/10/26 07:28:08;;;;;;;13.27;7.33;;;;;;;;;;5072274;28;20925;-69
2022/10/26 07:30:36;;;;;;;17.33;7.93;;;;;;;;;;5074089;28;20771;-70
2022/10/26 07:33:04;;;;;;;13.77;8.07;;;;;;;;;;5075151;28;20480;-69
2022/10/26 07:35:32;;;;;;;12.13;7.00;;;;;;;;;;5073492;28;20484;-70
2022/10/26 07:38:00;;;;;;;21.57;6.87;;;;;;;;;;5073938;28;20536;-71
2022/10/26 07:40:31;;;;;;;10.80;7.07;;;;;;;;;;5073125;28;20469;-71
2022/10/26 07:42:58;;;;;;;12.97;7.30;;;;;;;;;;5073753;28;20911;-72
2022/10/26 07:45:28;;;;;;;9.07;6.10;;;;;;;;;;5073653;28;21027;-72
2022/10/26 07:47:58;;;;;;;9.90;7.93;;;;;;;;;;5073427;28;20901;-71
2022/10/26 07:50:25;;;;;;;10.93;7.80;;;;;;;;;;5073500;28;20447;-71
2022/10/26 07:52:53;;;;;;;13.40;7.50;;;;;;;;;;5074413;28;20456;-71
2022/10/26 07:58:12;;;;;;;9.80;6.90;;;;;;;;;;5058063;28;20568;-73
2022/10/26 08:00:41;;;;;;;11.17;6.80;;;;;;;;;;5071575;28;20961;-72
2022/10/26 08:03:08;;;;;;;27.33;13.80;;;;;;;;;;5074910;28;20876;-71
2022/10/26 08:05:42;;;;;;;9.20;6.80;;;;;;;;;;5071734;28;21096;-72
2022/10/26 08:08:13;;;;;;;10.47;6.40;;;;;;;;;;5055565;28;20463;-71
2022/10/26 08:10:44;;;;;;;12.40;6.90;;;;;;;;;;5063813;28;20464;-71
2022/10/26 08:13:14;;;;;;;8.93;6.30;;;;;;;;;;5074496;28;20459;-71
2022/10/26 08:15:44;;;;;;;10.07;6.40;;;;;;;;;;5075391;28;20453;-71
2022/10/26 08:18:13;;;;;;;10.07;6.40;;;;;;;;;;5073956;28;20444;-71
2022/10/26 08:20:40;;;;;;;10.90;7.20;;;;;;;;;;5072310;28;20756;-70
2022/10/26 08:23:11;;;;;;;10.90;6.20;;;;;;;;;;5057620;28;20499;-71
2022/10/26 08:25:38;;;;;;;17.07;6.90;;;;;;;;;;5071643;28;20464;-70
2022/10/26 08:28:05;;;;;;;10.80;5.63;;;;;;;;;;5074633;28;20455;-70
2022/10/26 08:30:34;;;;;;;7.00;5.20;;;;;;;;;;5074377;28;20445;-71
2022/10/26 08:33:10;;;;;;;8.60;6.20;;;;;;;;;;5073578;28;20480;-72
2022/10/26 08:35:37;;;;;;;9.47;6.80;;;;;;;;;;5071947;28;20474;-72
2022/10/26 08:38:05;;;;;;;9.83;6.60;;;;;;;;;;5074169;28;20525;-71
2022/10/26 08:40:38;;;;;;;10.43;5.67;;;;;;;;;;5072658;28;20522;-71
2022/10/26 08:43:33;;;;;;;9.27;5.80;;;;;;;;;;5059520;28;20636;-71
2022/10/26 08:46:04;;;;;;;8.23;5.93;;;;;;;;;;5072940;28;20480;-70
2022/10/26 08:48:34;;;;;;;7.50;5.57;;;;;;;;;;5072353;28;20731;-71
2022/10/26 08:51:06;;;;;;;8.10;5.10;;;;;;;;;;5071818;28;20469;-70
2022/10/26 08:53:41;;;;;;;12.57;6.47;;;;;;;;;;5066137;28;20551;-71
2022/10/26 08:56:13;;;;;;;10.33;5.60;;;;;;;;;;5082801;28;20974;-70
2022/10/26 08:58:43;;;;;;;12.07;7.27;;;;;;;;;;5083781;28;20455;-71
2022/10/26 09:01:15;;;;;;;12.77;6.20;;;;;;;;;;5068929;28;20772;-72
2022/10/26 09:03:47;;;;;;;8.17;5.37;;;;;;;;;;5067275;28;20465;-71
2022/10/26 09:06:21;;;;;;;7.17;6.20;;;;;;;;;;5069692;28;20471;-70
2022/10/26 09:08:56;;;;;;;9.47;5.97;;;;;;;;;;5069792;28;20463;-70
2022/10/26 09:11:36;;;;;;;9.33;5.10;;;;;;;;;;5072923;28;20464;-73
2022/10/26 09:14:09;;;;;;;7.93;6.07;;;;;;;;;;5072009;28;20544;-73
2022/10/26 09:16:43;;;;;;;7.27;5.13;;;;;;;;;;5071993;28;20514;-72
2022/10/26 09:19:26;;;;;;;9.73;5.33;;;;;;;;;;5068612;28;21095;-70
2022/10/26 09:22:01;;;;;;;10.07;5.93;;;;;;;;;;5062571;28;20500;-71
2022/10/26 09:24:37;;;;;;;8.07;5.00;;;;;;;;;;5057596;28;20960;-71
2022/10/26 09:27:08;;;;;;;8.83;4.83;;;;;;;;;;5066848;28;20472;-71
2022/10/26 09:29:42;;;;;;;7.40;5.07;;;;;;;;;;5069731;28;20480;-71
2022/10/26 09:32:14;;;;;;;10.07;4.80;;;;;;;;;;5065172;28;20787;-72
2022/10/26 09:34:52;;;;;;;7.00;4.70;;;;;;;;;;5073192;28;20503;-71
2022/10/26 09:40:24;;;;;;;9.13;5.17;;;;;;;;;;5059682;28;20891;-69
2022/10/26 09:42:56;;;;;;;9.63;5.40;;;;;;;;;;5071861;28;20484;-70
2022/10/26 09:45:32;;;;;;;9.40;5.37;;;;;;;;;;5071303;28;20467;-69
2022/10/26 09:48:10;;;;;;;8.53;5.07;;;;;;;;;;5073287;28;20460;-70
2022/10/26 09:50:39;;;;;;;7.57;5.00;;;;;;;;;;5068716;28;20487;-70
2022/10/26 09:53:12;;;;;;;7.67;4.70;;;;;;;;;;5070977;28;20455;-70
2022/10/26 09:55:42;;;;;;;8.57;5.53;;;;;;;;;;5068884;28;20465;-69
2022/10/26 09:58:13;;;;;;;8.57;4.17;;;;;;;;;;5070127;28;20456;-70
2022/10/26 10:00:42;;;;;;;8.77;4.87;;;;;;;;;;5068543;28;20508;-69
2022/10/26 10:03:19;;;;;;;9.37;4.73;;;;;;;;;;5071930;28;20540;-72
2022/10/26 10:06:17;;;;;;;7.87;4.70;;;;;;;;;;5070784;28;20468;-73
2022/10/26 10:09:23;;;;;;;9.03;5.10;;;;;;;;;;5064172;28;20467;-70
2022/10/26 10:12:01;;;;;;;9.50;4.60;;;;;;;;;;5068748;28;20544;-71
2022/10/26 10:14:41;;;;;;;6.40;4.60;;;;;;;;;;5054724;28;20468;-71
2022/10/26 10:17:21;;;;;;;5.73;3.90;;;;;;;;;;5050701;28;20449;-70
2022/10/26 10:19:49;;;;;;;6.77;3.90;;;;;;;;;;5061759;28;20443;-72
2022/10/26 10:22:21;;;;;;;9.57;4.20;;;;;;;;;;5071779;28;20500;-70
2022/10/26 10:24:53;;;;;;;6.93;3.60;;;;;;;;;;5067549;28;20521;-71
2022/10/26 10:27:27;;;;;;;7.20;3.20;;;;;;;;;;5063523;28;20453;-72
2022/10/26 10:29:59;;;;;;;5.67;3.43;;;;;;;;;;5070985;28;20464;-74
2022/10/26 10:32:50;;;;;;;6.30;3.87;;;;;;;;;;5069404;28;20738;-71
2022/10/26 10:35:36;;;;;;;9.03;3.40;;;;;;;;;;5060062;28;20495;-71
2022/10/26 10:38:04;;;;;;;10.77;3.50;;;;;;;;;;5068550;28;20487;-69
2022/10/26 10:40:32;;;;;;;8.20;3.30;;;;;;;;;;5069388;28;20456;-69
2022/10/26 10:43:07;;;;;;;7.60;4.43;;;;;;;;;;5071721;28;20480;-72
2022/10/26 10:45:57;;;;;;;11.60;3.70;;;;;;;;;;5070283;28;20467;-71
2022/10/26 10:48:28;;;;;;;5.63;2.77;;;;;;;;;;5055157;28;20553;-70
2022/10/26 10:50:58;;;;;;;11.63;4.30;;;;;;;;;;5071461;28;21150;-70
2022/10/26 10:53:29;;;;;;;5.63;3.60;;;;;;;;;;5073837;28;20468;-69
2022/10/26 10:56:08;;;;;;;6.17;4.03;;;;;;;;;;5074724;28;20465;-69
2022/10/26 10:58:49;;;;;;;10.60;3.50;;;;;;;;;;5073668;28;20510;-71
2022/10/26 11:01:24;;;;;;;10.00;3.63;;;;;;;;;;5073857;28;20460;-71
2022/10/26 11:04:03;;;;;;;6.03;3.40;;;;;;;;;;5061064;28;20468;-69
2022/10/26 11:06:32;;;;;;;6.00;3.83;;;;;;;;;;5073972;28;20467;-71
2022/10/26 11:09:06;;;;;;;5.93;3.87;;;;;;;;;;5075201;28;20803;-69
2022/10/26 11:11:37;;;;;;;6.03;3.40;;;;;;;;;;5076831;28;20522;-70
2022/10/26 11:14:08;;;;;;;5.20;2.90;;;;;;;;;;5057315;28;20742;-72
2022/10/26 11:16:37;;;;;;;9.57;5.67;;;;;;;;;;5067384;28;20464;-71
2022/10/26 11:19:13;;;;;;;11.33;5.70;;;;;;;;;;5072504;28;20874;-73
2022/10/26 11:21:41;;;;;;;13.23;4.47;;;;;;;;;;5073209;28;20486;-71
2022/10/26 11:24:13;;;;;;;6.27;4.10;;;;;;;;;;5073219;28;20541;-70
2022/10/26 11:26:43;;;;;;;9.30;5.30;;;;;;;;;;5073704;28;20459;-70
2022/10/26 11:29:22;;;;;;;11.40;4.17;;;;;;;;;;5073692;28;20468;-70
2022/10/26 11:31:54;;;;;;;11.60;4.60;;;;;;;;;;5073361;28;20513;-70
2022/10/26 11:34:26;;;;;;;13.70;5.40;;;;;;;;;;5071340;28;20456;-71
2022/10/26 11:36:56;;;;;;;10.00;6.43;;;;;;;;;;5071006;28;20514;-72
2022/10/26 11:39:29;;;;;;;8.90;3.90;;;;;;;;;;5069000;28;20533;-71
2022/10/26 11:42:02;;;;;;;4.80;2.80;;;;;;;;;;5068452;28;20567;-71
2022/10/26 11:44:34;;;;;;;19.93;8.73;;;;;;;;;;5072858;28;20522;-70
2022/10/26 11:47:04;;;;;;;5.37;3.80;;;;;;;;;;5073571;28;20465;-71
2022/10/26 11:49:37;;;;;;;29.23;6.50;;;;;;;;;;5070792;28;20512;-72
2022/10/26 11:52:09;;;;;;;4.90;3.10;;;;;;;;;;5071833;28;20467;-71
2022/10/26 11:54:40;;;;;;;6.63;2.43;;;;;;;;;;5072542;28;20898;-70
2022/10/26 11:57:07;;;;;;;6.90;3.70;;;;;;;;;;5070216;28;20469;-72
2022/10/26 11:59:42;;;;;;;4.50;2.40;;;;;;;;;;5063457;28;20457;-71
2022/10/26 12:02:13;;;;;;;10.50;4.10;;;;;;;;;;5065500;28;20538;-73
2022/10/26 12:04:48;;;;;;;3.87;2.00;;;;;;;;;;5071824;28;20464;-70
2022/10/26 12:07:20;;;;;;;3.60;1.97;;;;;;;;;;5070145;28;20466;-70
2022/10/26 12:09:47;;;;;;;5.13;2.37;;;;;;;;;;5071927;28;20469;-69
2022/10/26 12:12:21;;;;;;;6.37;3.57;;;;;;;;;;5069861;28;20574;-70
2022/10/26 12:14:56;;;;;;;5.83;3.20;;;;;;;;;;5069252;28;20465;-70
2022/10/26 12:17:26;;;;;;;12.60;8.53;;;;;;;;;;5065158;28;20467;-69
2022/10/26 12:20:01;;;;;;;8.73;5.50;;;;;;;;;;5067205;28;20475;-70
2022/10/26 12:22:33;;;;;;;9.83;4.27;;;;;;;;;;5066760;28;20570;-69
2022/10/26 12:25:09;;;;;;;11.93;5.27;;;;;;;;;;5072052;28;20468;-68
2022/10/26 12:27:53;;;;;;;8.43;3.50;;;;;;;;;;5072455;28;20519;-70
2022/10/26 12:30:26;;;;;;;4.43;2.07;;;;;;;;;;5061332;28;20471;-70
2022/10/26 12:32:55;;;;;;;5.03;4.13;;;;;;;;;;5072533;28;20457;-71
2022/10/26 12:35:35;;;;;;;24.50;19.70;;;;;;;;;;5075202;28;20537;-71
2022/10/26 12:38:19;;;;;;;7.20;4.03;;;;;;;;;;5058573;28;20764;-68
2022/10/26 12:41:08;;;;;;;3.87;2.67;;;;;;;;;;5067521;28;20477;-72
2022/10/26 12:43:37;;;;;;;6.30;2.30;;;;;;;;;;5066717;28;20615;-70
2022/10/26 12:46:23;;;;;;;5.63;2.80;;;;;;;;;;5072160;28;20996;-70
2022/10/26 12:48:50;;;;;;;6.47;1.70;;;;;;;;;;5062484;28;20562;-72
2022/10/26 12:51:35;;;;;;;4.20;2.60;;;;;;;;;;5068210;28;20500;-70
2022/10/26 12:54:08;;;;;;;3.63;1.57;;;;;;;;;;5068141;28;20474;-70
2022/10/26 12:56:50;;;;;;;5.17;2.67;;;;;;;;;;5066708;28;20491;-70
2022/10/26 12:59:22;;;;;;;5.30;1.80;;;;;;;;;;5060335;28;20476;-71
2022/10/26 13:02:13;;;;;;;3.97;1.67;;;;;;;;;;5063681;28;20483;-71
2022/10/26 13:05:08;;;;;;;8.43;4.07;;;;;;;;;;5072214;28;20491;-70
2022/10/26 13:07:36;;;;;;;4.70;2.00;;;;;;;;;;5068336;28;20459;-70
2022/10/26 13:10:09;;;;;;;14.70;9.97;;;;;;;;;;5072220;28;20553;-70
2022/10/26 13:12:46;;;;;;;10.20;2.53;;;;;;;;;;5067341;28;20470;-70
2022/10/26 13:15:30;;;;;;;7.70;3.77;;;;;;;;;;5071926;28;20594;-69
2022/10/26 13:18:08;;;;;;;6.07;2.07;;;;;;;;;;5069635;28;20449;-68
2022/10/26 13:20:38;;;;;;;5.40;2.00;;;;;;;;;;5072759;28;20973;-69
2022/10/26 13:23:18;;;;;;;3.37;2.00;;;;;;;;;;5071969;28;20480;-69
2022/10/26 13:26:01;;;;;;;8.13;2.20;;;;;;;;;;5065331;28;20491;-68
2022/10/26 13:28:37;;;;;;;5.23;1.90;;;;;;;;;;5065118;28;20713;-69
2022/10/26 13:31:05;;;;;;;7.93;2.07;;;;;;;;;;5068708;28;20443;-69
2022/10/26 13:33:38;;;;;;;3.33;1.70;;;;;;;;;;5070513;28;20455;-69
2022/10/26 13:36:14;;;;;;;5.27;2.50;;;;;;;;;;5077771;28;20525;-70
2022/10/26 13:38:42;;;;;;;4.30;2.17;;;;;;;;;;5069224;28;20476;-70
2022/10/26 13:41:20;;;;;;;7.40;2.47;;;;;;;;;;5069483;28;20476;-69
2022/10/26 13:43:54;;;;;;;3.53;1.87;;;;;;;;;;5071105;28;20959;-69
2022/10/26 13:46:31;;;;;;;3.10;1.70;;;;;;;;;;5070194;28;20460;-70
2022/10/26 13:49:01;;;;;;;7.17;2.23;;;;;;;;;;5069405;28;20464;-70
2022/10/26 13:51:35;;;;;;;4.50;2.60;;;;;;;;;;5071720;28;20562;-69
2022/10/26 13:54:04;;;;;;;4.63;2.20;;;;;;;;;;5080843;28;20463;-68
2022/10/26 13:56:33;;;;;;;11.57;2.50;;;;;;;;;;5080968;28;20469;-69
2022/10/26 13:59:02;;;;;;;9.57;2.47;;;;;;;;;;5068062;28;20515;-69
2022/10/26 14:01:33;;;;;;;6.47;2.63;;;;;;;;;;5071060;28;20480;-67
2022/10/26 14:04:00;;;;;;;6.47;2.80;;;;;;;;;;5071505;28;20475;-67
2022/10/26 14:06:29;;;;;;;5.70;2.73;;;;;;;;;;5069430;28;20737;-69
2022/10/26 14:09:02;;;;;;;7.70;2.60;;;;;;;;;;5070786;28;20468;-69
2022/10/26 14:11:35;;;;;;;5.40;2.70;;;;;;;;;;5056507;28;20892;-71
2022/10/26 14:14:06;;;;;;;8.00;3.17;;;;;;;;;;5064574;28;20467;-69
2022/10/26 14:16:34;;;;;;;3.00;1.77;;;;;;;;;;5069835;28;20553;-71
2022/10/26 14:19:01;;;;;;;6.87;2.50;;;;;;;;;;5069118;28;20464;-70
2022/10/26 14:21:29;;;;;;;5.10;3.33;;;;;;;;;;5067387;28;20464;-69
2022/10/26 14:24:06;;;;;;;4.07;2.23;;;;;;;;;;5070525;28;20963;-71
2022/10/26 14:26:39;;;;;;;7.03;2.60;;;;;;;;;;5069178;28;20508;-68
2022/10/26 14:29:19;;;;;;;5.90;3.00;;;;;;;;;;5051357;28;20445;-70
2022/10/26 14:31:48;;;;;;;5.10;2.67;;;;;;;;;;5068696;28;20460;-69
2022/10/26 14:34:22;;;;;;;4.60;2.57;;;;;;;;;;5069974;28;20471;-70
2022/10/26 14:36:51;;;;;;;6.50;2.83;;;;;;;;;;5056621;28;20483;-70
2022/10/26 14:39:21;;;;;;;7.23;2.80;;;;;;;;;;5069436;28;20453;-70
2022/10/26 14:41:51;;;;;;;5.60;2.93;;;;;;;;;;5068014;28;20480;-70
2022/10/26 14:44:21;;;;;;;9.93;2.87;;;;;;;;;;5070649;28;20876;-69
2022/10/26 14:46:49;;;;;;;4.30;3.00;;;;;;;;;;5070666;28;20523;-69
2022/10/26 14:49:21;;;;;;;5.10;2.90;;;;;;;;;;5072258;28;20466;-70
2022/10/26 14:51:50;;;;;;;4.27;2.67;;;;;;;;;;5070203;28;20565;-69
2022/10/26 14:54:21;;;;;;;5.37;2.10;;;;;;;;;;5069333;28;20496;-69
2022/10/26 14:56:48;;;;;;;8.27;3.30;;;;;;;;;;5053510;28;20721;-68
2022/10/26 14:59:22;;;;;;;5.77;3.17;;;;;;;;;;5072492;28;20469;-68
2022/10/26 15:01:53;;;;;;;9.60;3.20;;;;;;;;;;5072352;28;20477;-68
2022/10/26 15:04:28;;;;;;;4.67;2.30;;;;;;;;;;5070589;28;20799;-68
2022/10/26 15:07:01;;;;;;;7.50;3.17;;;;;;;;;;5078814;28;20528;-68